createdAt,value
2018-09-30T00:02:00.093Z,102326.30
2018-09-30T00:04:29.679Z,102322.36
2018-09-30T00:06:58.528Z,102319.39
2018-09-30T00:09:30.689Z,102321.74
2018-09-30T00:12:02.351Z,102315.81
2018-09-30T00:14:31.463Z,102310.98
2018-09-30T00:17:00.938Z,102312.78
2018-09-30T00:19:30.082Z,102315.16
2018-09-30T00:21:59.583Z,102309.97
2018-09-30T00:24:33.909Z,102299.02
2018-09-30T00:27:09.228Z,102298.30
2018-09-30T00:29:38.831Z,102296.16
2018-09-30T00:32:07.711Z,102289.47
2018-09-30T00:34:36.574Z,102284.36
2018-09-30T00:37:05.512Z,102280.09
2018-09-30T00:39:34.502Z,102277.55
2018-09-30T00:42:03.172Z,102281.06
2018-09-30T00:44:31.929Z,102274.06
2018-09-30T00:47:00.787Z,102278.36
2018-09-30T00:49:30.191Z,102270.58
2018-09-30T00:51:59.015Z,102265.06
2018-09-30T00:54:27.749Z,102257.34
2018-09-30T00:56:56.441Z,102237.34
2018-09-30T00:59:25.104Z,102245.97
2018-09-30T01:01:54.088Z,102240.41
2018-09-30T01:04:23.020Z,102235.97
2018-09-30T01:06:51.751Z,102231.28
2018-09-30T01:09:20.592Z,102225.74
2018-09-30T01:11:49.581Z,102226.66
2018-09-30T01:14:18.602Z,102223.33
2018-09-30T01:16:47.341Z,102224.23
2018-09-30T01:19:22.842Z,102218.97
2018-09-30T01:21:51.527Z,102216.48
2018-09-30T01:24:20.377Z,102214.46
2018-09-30T01:26:49.123Z,102207.80
2018-09-30T01:29:17.802Z,102200.53
2018-09-30T01:31:46.580Z,102189.75
2018-09-30T01:34:15.551Z,102194.56
2018-09-30T01:36:44.556Z,102188.54
2018-09-30T01:39:13.502Z,102181.70
2018-09-30T01:41:42.270Z,102175.77
2018-09-30T01:44:10.955Z,102181.60
2018-09-30T01:46:39.716Z,102180.91
2018-09-30T01:49:08.576Z,102182.79
2018-09-30T01:51:37.448Z,102090.80
2018-09-30T01:54:06.249Z,102180.06
2018-09-30T01:56:34.927Z,102176.55
2018-09-30T01:59:03.762Z,102172.73
2018-09-30T02:01:32.713Z,102169.32
2018-09-30T02:04:01.613Z,102166.80
2018-09-30T02:06:30.520Z,102161.86
2018-09-30T02:08:59.340Z,102158.39
2018-09-30T02:11:28.204Z,102149.64
2018-09-30T02:13:56.896Z,102149.64
2018-09-30T02:16:25.749Z,102140.65
2018-09-30T02:18:54.485Z,102137.06
2018-09-30T02:21:23.396Z,102133.92
2018-09-30T02:23:52.274Z,102127.53
2018-09-30T02:26:21.062Z,102120.99
2018-09-30T02:28:49.891Z,102123.48
2018-09-30T02:31:18.719Z,102119.23
2018-09-30T02:33:47.464Z,102118.96
2018-09-30T02:36:16.328Z,102121.20
2018-09-30T02:38:45.228Z,102118.54
2018-09-30T02:41:13.990Z,102112.06
2018-09-30T02:43:42.733Z,102105.22
2018-09-30T02:46:11.607Z,102111.52
2018-09-30T02:48:40.563Z,102100.47
2018-09-30T02:51:09.299Z,102102.81
2018-09-30T02:53:38.045Z,102110.08
2018-09-30T02:56:06.823Z,102103.07
2018-09-30T02:58:35.697Z,102097.08
2018-09-30T03:01:04.342Z,102088.93
2018-09-30T03:03:33.184Z,102086.36
2018-09-30T03:06:02.353Z,102086.11
2018-09-30T03:08:37.404Z,102084.85
2018-09-30T03:11:06.716Z,102082.48
2018-09-30T03:13:35.521Z,102081.27
2018-09-30T03:16:04.391Z,102079.92
2018-09-30T03:18:33.195Z,102075.14
2018-09-30T03:21:02.214Z,102074.37
2018-09-30T03:23:31.439Z,102074.80
2018-09-30T03:26:00.120Z,102076.63
2018-09-30T03:28:29.056Z,102074.40
2018-09-30T03:30:57.849Z,102065.70
2018-09-30T03:33:27.086Z,102064.82
2018-09-30T03:35:55.828Z,102060.23
2018-09-30T03:38:24.559Z,102058.00
2018-09-30T03:40:53.539Z,102054.95
2018-09-30T03:43:22.266Z,102058.54
2018-09-30T03:45:51.722Z,102054.11
2018-09-30T03:48:20.488Z,102049.87
2018-09-30T03:50:49.396Z,102062.41
2018-09-30T03:53:18.048Z,102054.64
2018-09-30T03:55:46.862Z,102054.24
2018-09-30T03:58:15.583Z,102056.73
2018-09-30T04:00:44.373Z,102053.38
2018-09-30T04:03:13.113Z,102055.06
2018-09-30T04:05:41.827Z,102053.95
2018-09-30T04:08:10.640Z,102058.96
2018-09-30T04:10:40.131Z,102058.27
2018-09-30T04:13:08.878Z,102076.81
2018-09-30T04:15:37.828Z,102067.24
2018-09-30T04:18:06.734Z,102059.44
2018-09-30T04:20:35.643Z,102058.64
2018-09-30T04:23:05.360Z,102062.14
2018-09-30T04:25:34.204Z,102063.97
2018-09-30T04:28:03.128Z,102063.58
2018-09-30T04:30:32.305Z,102060.90
2018-09-30T04:33:01.080Z,102064.37
2018-09-30T04:35:29.995Z,102065.80
2018-09-30T04:37:58.936Z,102072.75
2018-09-30T04:40:27.673Z,102063.61
2018-09-30T04:42:56.423Z,102066.59
2018-09-30T04:45:25.212Z,102057.30
2018-09-30T04:47:53.946Z,102063.75
2018-09-30T04:50:22.754Z,102065.27
2018-09-30T04:52:51.925Z,102058.06
2018-09-30T04:55:20.674Z,102064.88
2018-09-30T04:57:49.429Z,102058.75
2018-09-30T05:00:18.462Z,102060.33
2018-09-30T05:02:47.317Z,102051.61
2018-09-30T05:05:16.008Z,102056.81
2018-09-30T05:07:44.686Z,102049.88
2018-09-30T05:10:13.693Z,102055.08
2018-09-30T05:12:44.320Z,102055.63
2018-09-30T05:15:13.106Z,102056.93
2018-09-30T05:17:41.894Z,102054.31
2018-09-30T05:20:10.876Z,102056.95
2018-09-30T05:22:39.567Z,102059.12
2018-09-30T05:25:08.368Z,102056.53
2018-09-30T05:27:37.763Z,102058.83
2018-09-30T05:30:06.668Z,102053.16
2018-09-30T05:32:35.529Z,102062.30
2018-09-30T05:35:04.223Z,102056.63
2018-09-30T05:37:33.178Z,102057.22
2018-09-30T05:40:04.831Z,102058.55
2018-09-30T05:42:33.840Z,102046.44
2018-09-30T05:45:02.747Z,102048.67
2018-09-30T05:47:31.393Z,102042.27
2018-09-30T05:50:00.100Z,102036.05
2018-09-30T05:52:28.737Z,102037.34
2018-09-30T05:54:57.900Z,102035.67
2018-09-30T05:57:26.890Z,102029.50
2018-09-30T05:59:55.664Z,102027.49
2018-09-30T06:02:24.503Z,102041.53
2018-09-30T06:04:53.246Z,102035.16
2018-09-30T06:07:22.780Z,102037.23
2018-09-30T06:09:52.031Z,102024.16
2018-09-30T06:12:20.896Z,102033.14
2018-09-30T06:14:49.714Z,102034.45
2018-09-30T06:17:18.828Z,102042.69
2018-09-30T06:19:47.594Z,102039.30
2018-09-30T06:22:16.371Z,102032.77
2018-09-30T06:24:45.631Z,102035.82
2018-09-30T06:27:14.305Z,102041.84
2018-09-30T06:29:43.743Z,102045.54
2018-09-30T06:32:12.541Z,102040.79
2018-09-30T06:34:41.263Z,102038.42
2018-09-30T06:37:10.811Z,102049.06
2018-09-30T06:39:39.588Z,102044.07
2018-09-30T06:42:09.004Z,102035.72
2018-09-30T06:44:37.757Z,102041.21
2018-09-30T06:47:06.904Z,102040.09
2018-09-30T06:49:35.600Z,102036.47
2018-09-30T06:52:04.401Z,102043.19
2018-09-30T06:54:33.133Z,102045.09
2018-09-30T06:59:36.072Z,102034.55
2018-09-30T07:02:05.139Z,102033.39
2018-09-30T07:04:34.036Z,102031.78
2018-09-30T07:07:03.689Z,102035.03
2018-09-30T07:09:33.934Z,102040.48
2018-09-30T07:14:36.002Z,102035.75
2018-09-30T07:17:04.978Z,102029.29
2018-09-30T07:19:33.575Z,102029.12
2018-09-30T07:22:02.296Z,102028.69
2018-09-30T07:24:31.028Z,102022.33
2018-09-30T07:26:59.820Z,102016.39
2018-09-30T07:29:29.614Z,102023.79
2018-09-30T07:31:58.472Z,102016.85
2018-09-30T07:34:27.204Z,102010.53
2018-09-30T07:36:56.736Z,102001.49
2018-09-30T07:39:26.131Z,102005.20
2018-09-30T07:41:54.869Z,102009.00
2018-09-30T07:44:23.677Z,102000.94
2018-09-30T07:46:52.863Z,102003.88
2018-09-30T07:49:21.527Z,102007.91
2018-09-30T07:51:51.052Z,102002.67
2018-09-30T07:54:19.864Z,101990.32
2018-09-30T07:56:48.612Z,101989.44
2018-09-30T07:59:18.214Z,101988.27
2018-09-30T08:01:46.863Z,101988.48
2018-09-30T08:04:15.648Z,101986.75
2018-09-30T08:06:44.223Z,101978.57
2018-09-30T08:09:13.399Z,101976.11
2018-09-30T08:11:42.129Z,101979.26
2018-09-30T08:14:11.759Z,101978.44
2018-09-30T08:16:40.360Z,101978.30
2018-09-30T08:19:10.748Z,101975.06
2018-09-30T08:21:39.409Z,101975.19
2018-09-30T08:24:08.978Z,101968.78
2018-09-30T08:26:37.597Z,101971.58
2018-09-30T08:29:06.390Z,101960.46
2018-09-30T08:31:35.206Z,101970.61
2018-09-30T08:34:04.186Z,101970.47
2018-09-30T08:36:32.916Z,101960.43
2018-09-30T08:39:01.641Z,101959.45
2018-09-30T08:41:30.507Z,101954.66
2018-09-30T08:43:59.532Z,101959.84
2018-09-30T08:46:28.151Z,101949.94
2018-09-30T08:48:56.967Z,101945.45
2018-09-30T08:51:25.845Z,101947.09
2018-09-30T08:53:54.625Z,101942.98
2018-09-30T08:56:24.402Z,101943.26
2018-09-30T08:58:53.124Z,101943.33
2018-09-30T09:01:22.890Z,101934.45
2018-09-30T09:03:52.445Z,101942.72
2018-09-30T09:06:21.020Z,101939.09
2018-09-30T09:08:50.666Z,101943.34
2018-09-30T09:17:38.158Z,101925.87
2018-09-30T09:20:06.843Z,101914.34
2018-09-30T09:22:35.695Z,101916.70
2018-09-30T09:25:04.632Z,101918.78
2018-09-30T09:27:35.413Z,101920.44
2018-09-30T09:30:04.316Z,101916.62
2018-09-30T09:32:35.668Z,101916.38
2018-09-30T09:35:05.966Z,101914.91
2018-09-30T09:37:35.020Z,101910.52
2018-09-30T09:40:04.885Z,101912.58
2018-09-30T09:42:33.763Z,101906.16
2018-09-30T09:45:02.549Z,101902.52
2018-09-30T09:47:31.622Z,101897.89
2018-09-30T09:50:00.608Z,101903.91
2018-09-30T09:55:29.476Z,101887.44
2018-09-30T09:57:58.284Z,101892.61
2018-09-30T10:00:45.887Z,101893.08
2018-09-30T10:03:15.686Z,101888.54
2018-09-30T10:05:44.623Z,101885.29
2018-09-30T10:08:13.489Z,101879.44
2018-09-30T10:10:42.082Z,101877.14
2018-09-30T10:13:10.781Z,101879.67
2018-09-30T10:15:39.378Z,101868.58
2018-09-30T10:18:08.130Z,101870.06
2018-09-30T10:20:37.018Z,101867.12
2018-09-30T10:23:05.905Z,101864.83
2018-09-30T10:25:35.271Z,101867.59
2018-09-30T10:28:03.939Z,101864.33
2018-09-30T10:30:32.652Z,101862.94
2018-09-30T10:33:01.039Z,101858.35
2018-09-30T10:35:29.732Z,101854.41
2018-09-30T10:37:59.355Z,101850.81
2018-09-30T10:40:28.734Z,101841.54
2018-09-30T10:42:58.032Z,101850.08
2018-09-30T10:45:26.940Z,101848.11
2018-09-30T10:47:55.644Z,101847.72
2018-09-30T10:50:24.405Z,101845.45
2018-09-30T10:52:53.391Z,101843.86
2018-09-30T10:55:22.251Z,101841.78
2018-09-30T10:57:50.939Z,101829.50
2018-09-30T11:00:19.617Z,101828.68
2018-09-30T11:02:48.556Z,101822.91
2018-09-30T11:05:17.120Z,101826.14
2018-09-30T11:07:45.771Z,101821.66
2018-09-30T11:10:14.618Z,101819.38
2018-09-30T11:12:43.274Z,101818.91
2018-09-30T11:15:12.063Z,101816.73
2018-09-30T11:17:40.691Z,101813.45
2018-09-30T11:20:09.339Z,101816.33
2018-09-30T11:22:38.115Z,101807.94
2018-09-30T11:25:06.939Z,101810.45
2018-09-30T11:27:35.542Z,101814.30
2018-09-30T11:30:04.292Z,101804.05
2018-09-30T11:32:32.952Z,101804.00
2018-09-30T11:35:01.546Z,101797.19
2018-09-30T11:37:30.171Z,101800.23
2018-09-30T11:39:58.883Z,101800.78
2018-09-30T11:42:27.552Z,101801.12
2018-09-30T11:44:56.163Z,101802.45
2018-09-30T11:47:24.791Z,101793.25
2018-09-30T11:49:53.451Z,101795.03
2018-09-30T11:52:22.117Z,101793.20
2018-09-30T11:54:50.795Z,101782.52
2018-09-30T11:57:19.418Z,101778.76
2018-09-30T11:59:48.354Z,101777.38
2018-09-30T12:02:17.150Z,101768.36
2018-09-30T12:04:45.912Z,101759.63
2018-09-30T12:07:14.445Z,101755.27
2018-09-30T12:09:43.033Z,101752.25
2018-09-30T12:12:11.745Z,101746.30
2018-09-30T12:14:41.641Z,101750.77
2018-09-30T12:17:10.552Z,101750.30
2018-09-30T12:19:39.732Z,101737.77
2018-09-30T12:22:08.854Z,101746.66
2018-09-30T12:24:38.305Z,101739.80
2018-09-30T12:27:08.547Z,101738.33
2018-09-30T12:29:38.352Z,101734.28
2018-09-30T12:32:07.399Z,101734.59
2018-09-30T12:34:36.151Z,101719.07
2018-09-30T12:37:05.774Z,101714.03
2018-09-30T12:39:34.503Z,101720.03
2018-09-30T12:42:03.817Z,101717.38
2018-09-30T12:44:33.611Z,101711.16
2018-09-30T12:47:02.328Z,101714.14
2018-09-30T12:49:30.963Z,101709.40
2018-09-30T12:52:00.828Z,101701.63
2018-09-30T12:54:30.284Z,101708.27
2018-09-30T12:56:59.866Z,101709.62
2018-09-30T12:59:28.826Z,101702.13
2018-09-30T13:01:57.590Z,101690.68
2018-09-30T13:04:27.175Z,101697.48
2018-09-30T13:06:57.274Z,101692.41
2018-09-30T13:09:30.728Z,101695.57
2018-09-30T13:12:06.181Z,101688.95
2018-09-30T13:14:36.236Z,101690.27
2018-09-30T13:17:05.232Z,101681.75
2018-09-30T13:19:33.934Z,101678.35
2018-09-30T13:22:02.906Z,101681.78
2018-09-30T13:24:31.700Z,101680.12
2018-09-30T13:27:01.906Z,101680.87
2018-09-30T13:29:30.718Z,101678.31
2018-09-30T13:32:02.130Z,101669.11
2018-09-30T13:34:32.107Z,101670.03
2018-09-30T13:37:01.122Z,101672.80
2018-09-30T13:39:29.949Z,101672.13
2018-09-30T13:41:58.937Z,101668.02
2018-09-30T13:44:27.725Z,101661.12
2018-09-30T13:46:56.479Z,101658.01
2018-09-30T13:49:25.281Z,101657.50
2018-09-30T13:51:54.165Z,101674.97
2018-09-30T13:54:23.740Z,101666.41
2018-09-30T13:56:52.482Z,101671.19
2018-09-30T13:59:22.207Z,101676.89
2018-09-30T14:01:51.136Z,101680.92
2018-09-30T14:04:20.354Z,101680.20
2018-09-30T14:06:50.831Z,101678.27
2018-09-30T14:09:19.650Z,101686.33
2018-09-30T14:11:48.702Z,101680.69
2018-09-30T14:14:17.794Z,101680.98
2018-09-30T14:16:48.495Z,101687.80
2018-09-30T14:19:18.287Z,101685.41
2018-09-30T14:21:53.914Z,101681.52
2018-09-30T14:24:22.791Z,101689.28
2018-09-30T14:26:52.079Z,101684.77
2018-09-30T14:29:21.394Z,101687.14
2018-09-30T14:31:50.424Z,101678.20
2018-09-30T14:34:20.182Z,101679.48
2018-09-30T14:36:48.985Z,101680.97
2018-09-30T14:39:19.039Z,101687.31
2018-09-30T14:41:48.779Z,101685.70
2018-09-30T14:44:17.633Z,101687.25
2018-09-30T14:46:46.312Z,101683.94
2018-09-30T14:49:15.139Z,101682.58
2018-09-30T14:51:44.828Z,101689.19
2018-09-30T14:54:13.753Z,101685.39
2018-09-30T14:56:44.841Z,101684.75
2018-09-30T14:59:14.380Z,101687.48
2018-09-30T15:01:43.146Z,101690.64
2018-09-30T15:04:12.938Z,101683.75
2018-09-30T15:06:42.824Z,101685.58
2018-09-30T15:09:12.929Z,101682.63
2018-09-30T15:11:42.488Z,101683.58
2018-09-30T15:14:12.501Z,101680.91
2018-09-30T15:16:42.159Z,101682.28
2018-09-30T15:19:11.385Z,101686.42
2018-09-30T15:21:40.902Z,101688.34
2018-09-30T15:24:10.923Z,101692.73
2018-09-30T15:26:39.882Z,101696.03
2018-09-30T15:29:08.743Z,101690.13
2018-09-30T15:31:37.713Z,101688.65
2018-09-30T15:34:06.724Z,101679.03
2018-09-30T15:36:35.559Z,101689.03
2018-09-30T15:39:06.436Z,101683.39
2018-09-30T15:41:36.255Z,101681.25
2018-09-30T15:44:04.981Z,101677.72
2018-09-30T15:46:34.346Z,101679.20
2018-09-30T15:49:04.903Z,101671.15
2018-09-30T15:51:34.069Z,101670.48
2018-09-30T15:54:03.994Z,101673.93
2018-09-30T15:56:32.936Z,101680.50
2018-09-30T15:59:03.409Z,101679.03
2018-09-30T16:01:32.725Z,101678.86
2018-09-30T16:04:02.131Z,101679.36
2018-09-30T16:06:31.615Z,101674.55
2018-09-30T16:09:00.994Z,101681.16
2018-09-30T16:11:31.250Z,101685.98
2018-09-30T16:14:01.632Z,101686.56
2018-09-30T16:16:31.694Z,101681.16
2018-09-30T16:19:00.761Z,101685.69
2018-09-30T16:21:30.983Z,101680.20
2018-09-30T16:24:01.100Z,101688.03
2018-09-30T16:26:30.385Z,101694.75
2018-09-30T16:29:00.612Z,101684.37
2018-09-30T16:31:30.355Z,101682.77
2018-09-30T16:34:00.208Z,101682.20
2018-09-30T16:36:29.355Z,101675.98
2018-09-30T16:38:58.267Z,101682.31
2018-09-30T16:41:27.249Z,101686.75
2018-09-30T16:43:56.294Z,101692.41
2018-09-30T16:46:25.162Z,101686.63
2018-09-30T16:48:54.027Z,101684.16
2018-09-30T16:51:22.944Z,101691.45
2018-09-30T16:53:51.828Z,101700.50
2018-09-30T16:56:20.517Z,101690.25
2018-09-30T16:58:50.096Z,101698.98
2018-09-30T17:01:19.112Z,101698.55
2018-09-30T17:03:49.294Z,101711.16
2018-09-30T17:06:18.396Z,101701.89
2018-09-30T17:08:47.574Z,101700.47
2018-09-30T17:11:16.473Z,101700.58
2018-09-30T17:13:46.882Z,101706.58
2018-09-30T17:16:15.920Z,101711.30
2018-09-30T17:18:44.980Z,101713.66
2018-09-30T17:21:14.343Z,101721.84
2018-09-30T17:23:43.281Z,101714.73
2018-09-30T17:26:12.159Z,101713.11
2018-09-30T17:28:41.120Z,101716.17
2018-09-30T17:31:10.782Z,101719.56
2018-09-30T17:33:40.360Z,101724.30
2018-09-30T17:36:09.404Z,101721.70
2018-09-30T17:38:38.964Z,101715.95
2018-09-30T17:41:07.933Z,101722.11
2018-09-30T17:43:37.137Z,101725.54
2018-09-30T17:46:06.871Z,101718.11
2018-09-30T17:48:35.938Z,101717.58
2018-09-30T17:51:04.746Z,101716.22
2018-09-30T17:53:34.112Z,101716.45
2018-09-30T17:56:08.911Z,101716.41
2018-09-30T17:58:38.040Z,101712.10
2018-09-30T18:01:07.903Z,101711.91
2018-09-30T18:03:36.801Z,101719.59
2018-09-30T18:06:05.797Z,101714.58
2018-09-30T18:08:34.537Z,101714.02
2018-09-30T18:11:03.487Z,101715.11
2018-09-30T18:13:32.412Z,101715.08
2018-09-30T18:16:01.278Z,101711.69
2018-09-30T18:18:30.240Z,101711.08
2018-09-30T18:20:59.861Z,101721.78
2018-09-30T18:23:28.748Z,101713.00
2018-09-30T18:25:57.553Z,101704.91
2018-09-30T18:28:27.051Z,101704.33
2018-09-30T18:30:56.345Z,101713.40
2018-09-30T18:33:25.473Z,101715.09
2018-09-30T18:35:54.580Z,101713.25
2018-09-30T18:38:23.755Z,101714.33
2018-09-30T18:40:52.729Z,101712.23
2018-09-30T18:43:22.221Z,101710.05
2018-09-30T18:45:51.397Z,101712.56
2018-09-30T18:48:20.629Z,101715.47
2018-09-30T18:50:50.636Z,101714.16
2018-09-30T18:53:24.375Z,101713.45
2018-09-30T18:55:54.178Z,101719.50
2018-09-30T18:58:24.454Z,101719.81
2018-09-30T19:00:53.952Z,101722.41
2018-09-30T19:03:23.343Z,101726.88
2018-09-30T19:05:52.549Z,101724.41
2018-09-30T19:08:21.790Z,101729.37
2018-09-30T19:10:50.972Z,101728.74
2018-09-30T19:13:20.429Z,101721.50
2018-09-30T19:15:49.680Z,101726.89
2018-09-30T19:18:18.920Z,101727.06
2018-09-30T19:20:48.135Z,101716.48
2018-09-30T19:23:19.501Z,101711.45
2018-09-30T19:25:51.220Z,101718.06
2018-09-30T19:28:20.108Z,101720.88
2018-09-30T19:30:48.892Z,101718.75
2018-09-30T19:33:18.148Z,101711.75
2018-09-30T19:35:47.282Z,101704.08
2018-09-30T19:38:16.217Z,101714.80
2018-09-30T19:40:45.038Z,101718.33
2018-09-30T19:43:13.821Z,101713.17
2018-09-30T19:45:43.019Z,101718.84
2018-09-30T19:48:12.940Z,101716.65
2018-09-30T19:50:41.958Z,101719.53
2018-09-30T19:53:10.836Z,101725.88
2018-09-30T19:55:39.490Z,101723.60
2018-09-30T19:58:08.214Z,101723.89
2018-09-30T20:00:37.104Z,101725.79
2018-09-30T20:03:06.897Z,101727.48
2018-09-30T20:05:35.792Z,101720.11
2018-09-30T20:08:04.643Z,101722.06
2018-09-30T20:10:34.316Z,101722.95
2018-09-30T20:13:04.354Z,101722.23
2018-09-30T20:15:33.753Z,101712.28
2018-09-30T20:18:02.481Z,101720.77
2018-09-30T20:20:31.223Z,101718.44
2018-09-30T20:22:59.946Z,101714.15
2018-09-30T20:25:28.522Z,101717.03
2018-09-30T20:27:57.640Z,101715.27
2018-09-30T20:30:26.387Z,101719.68
2018-09-30T20:32:56.174Z,101719.41
2018-09-30T20:35:24.884Z,101719.50
2018-09-30T20:37:53.952Z,101717.13
2018-09-30T20:40:23.227Z,101712.07
2018-09-30T20:42:51.876Z,101711.30
2018-09-30T20:45:20.676Z,101712.73
2018-09-30T20:47:50.888Z,101710.56
2018-09-30T20:50:19.832Z,101712.31
2018-09-30T20:52:48.677Z,101709.22
2018-09-30T20:55:17.481Z,101715.63
2018-09-30T20:57:46.141Z,101711.97
2018-09-30T21:00:15.252Z,101715.81
2018-09-30T21:02:50.917Z,101713.45
2018-09-30T21:05:34.470Z,101710.16
2018-09-30T21:08:03.375Z,101710.73
2018-09-30T21:10:31.983Z,101708.20
2018-09-30T21:13:00.553Z,101708.83
2018-09-30T21:15:29.145Z,101700.52
2018-09-30T21:17:57.875Z,101703.94
2018-09-30T21:20:26.626Z,101709.84
2018-09-30T21:22:55.720Z,101713.75
2018-09-30T21:25:24.521Z,101705.95
2018-09-30T21:27:53.527Z,101710.30
2018-09-30T21:30:22.408Z,101709.34
2018-09-30T21:32:51.112Z,101707.66
2018-09-30T21:35:19.813Z,101708.50
2018-09-30T21:37:49.826Z,101708.72
2018-09-30T21:40:20.663Z,101704.70
2018-09-30T21:42:50.486Z,101702.45
2018-09-30T21:45:19.984Z,101704.25
2018-09-30T21:47:50.630Z,101698.50
2018-09-30T21:50:20.504Z,101702.27
2018-09-30T21:52:49.411Z,101702.23
2018-09-30T21:55:19.811Z,101699.81
2018-09-30T21:57:48.661Z,101700.80
2018-09-30T22:01:24.842Z,101706.78
2018-09-30T22:03:54.160Z,101702.00
2018-09-30T22:06:22.912Z,101703.09
2018-09-30T22:08:52.089Z,101702.08
2018-09-30T22:11:20.866Z,101708.75
2018-09-30T22:13:52.412Z,101709.14
2018-09-30T22:16:21.110Z,101702.31
2018-09-30T22:18:50.792Z,101704.91
2018-09-30T22:21:20.359Z,101703.72
2018-09-30T22:23:49.237Z,101698.95
2018-09-30T22:26:18.208Z,101694.86
2018-09-30T22:28:49.710Z,101702.62
2018-09-30T22:31:18.475Z,101694.19
2018-09-30T22:33:47.414Z,101690.16
2018-09-30T22:36:18.075Z,101688.69
2018-09-30T22:38:47.059Z,101692.73
2018-09-30T22:41:15.787Z,101694.20
2018-09-30T22:43:44.589Z,101698.27
2018-09-30T22:46:13.339Z,101689.09
2018-09-30T22:48:42.183Z,101691.47
2018-09-30T22:51:17.665Z,101686.95
2018-09-30T22:53:46.575Z,101690.28
2018-09-30T22:56:16.579Z,101688.00
2018-09-30T22:58:46.491Z,101691.65
2018-09-30T23:01:15.563Z,101695.11
2018-09-30T23:03:44.581Z,101691.16
2018-09-30T23:06:14.263Z,101684.05
2018-09-30T23:08:43.620Z,101688.13
2018-09-30T23:11:13.939Z,101684.75
2018-09-30T23:13:44.410Z,101687.16
2018-09-30T23:16:13.219Z,101686.20
2018-09-30T23:18:42.452Z,101683.96
2018-09-30T23:21:11.571Z,101688.00
2018-09-30T23:23:40.459Z,101686.38
2018-09-30T23:26:09.119Z,101681.46
2018-09-30T23:28:38.179Z,101681.42
2018-09-30T23:31:08.408Z,101688.00
2018-09-30T23:33:37.287Z,101686.55
2018-09-30T23:36:06.701Z,101682.62
2018-09-30T23:38:35.506Z,101680.44
2018-09-30T23:41:06.049Z,101682.94
2018-09-30T23:43:35.068Z,101680.91
2018-09-30T23:46:04.874Z,101681.92
2018-09-30T23:48:34.333Z,101690.75
2018-09-30T23:51:03.706Z,101696.82
2018-09-30T23:53:32.478Z,101705.77
2018-09-30T23:56:01.466Z,101715.22
